sensor_id;sensor_type;location;lat;lon;timestamp;pressure;altitude;pressure_sealevel;temperature;humidity
63204;BME280;49297;43.210;27.914;2022-12-07T00:03:38;101348.47;;;9.46;77.37
63204;BME280;49297;43.210;27.914;2022-12-07T00:06:06;101349.66;;;9.42;77.38
63204;BME280;49297;43.210;27.914;2022-12-07T00:08:32;101351.69;;;9.38;77.86
63204;BME280;49297;43.210;27.914;2022-12-07T00:11:03;101356.25;;;9.36;77.76
63204;BME280;49297;43.210;27.914;2022-12-07T00:13:30;101356.59;;;9.31;77.88
63204;BME280;49297;43.210;27.914;2022-12-07T00:16:00;101351.63;;;9.27;77.67
63204;BME280;49297;43.210;27.914;2022-12-07T00:18:25;101366.75;;;9.25;78.15
63204;BME280;49297;43.210;27.914;2022-12-07T00:20:51;101360.75;;;9.23;77.79
63204;BME280;49297;43.210;27.914;2022-12-07T00:23:17;101357.50;;;9.19;77.97
63204;BME280;49297;43.210;27.914;2022-12-07T00:25:43;101363.75;;;9.18;78.04
63204;BME280;49297;43.210;27.914;2022-12-07T00:28:08;101364.59;;;9.19;78.37
63204;BME280;49297;43.210;27.914;2022-12-07T00:30:36;101362.66;;;9.21;78.26
63204;BME280;49297;43.210;27.914;2022-12-07T00:33:02;101360.88;;;9.21;78.34
63204;BME280;49297;43.210;27.914;2022-12-07T00:35:28;101367.84;;;9.22;78.34
63204;BME280;49297;43.210;27.914;2022-12-07T00:37:54;101363.28;;;9.24;78.15
63204;BME280;49297;43.210;27.914;2022-12-07T00:40:19;101362.34;;;9.25;77.75
63204;BME280;49297;43.210;27.914;2022-12-07T00:42:45;101366.53;;;9.28;78.04
63204;BME280;49297;43.210;27.914;2022-12-07T00:45:11;101369.06;;;9.29;78.15
63204;BME280;49297;43.210;27.914;2022-12-07T00:47:37;101358.28;;;9.32;78.19
63204;BME280;49297;43.210;27.914;2022-12-07T00:50:04;101363.31;;;9.36;78.49
63204;BME280;49297;43.210;27.914;2022-12-07T00:52:30;101356.00;;;9.39;78.35
63204;BME280;49297;43.210;27.914;2022-12-07T00:54:57;101353.16;;;9.42;77.80
63204;BME280;49297;43.210;27.914;2022-12-07T00:57:23;101355.56;;;9.45;77.54
63204;BME280;49297;43.210;27.914;2022-12-07T00:59:49;101352.72;;;9.48;77.49
63204;BME280;49297;43.210;27.914;2022-12-07T01:02:15;101353.44;;;9.50;77.68
63204;BME280;49297;43.210;27.914;2022-12-07T01:04:40;101350.41;;;9.55;77.51
63204;BME280;49297;43.210;27.914;2022-12-07T01:07:06;101349.25;;;9.59;77.61
63204;BME280;49297;43.210;27.914;2022-12-07T01:09:32;101343.84;;;9.61;77.07
63204;BME280;49297;43.210;27.914;2022-12-07T01:11:58;101338.41;;;9.62;77.02
63204;BME280;49297;43.210;27.914;2022-12-07T01:14:23;101340.00;;;9.65;77.36
63204;BME280;49297;43.210;27.914;2022-12-07T01:16:49;101341.06;;;9.62;76.76
63204;BME280;49297;43.210;27.914;2022-12-07T01:19:15;101333.13;;;9.62;77.16
63204;BME280;49297;43.210;27.914;2022-12-07T01:21:41;101320.78;;;9.63;76.64
63204;BME280;49297;43.210;27.914;2022-12-07T01:24:09;101321.84;;;9.60;76.66
63204;BME280;49297;43.210;27.914;2022-12-07T01:26:36;101319.31;;;9.59;76.91
63204;BME280;49297;43.210;27.914;2022-12-07T01:29:02;101324.09;;;9.53;76.88
63204;BME280;49297;43.210;27.914;2022-12-07T01:31:28;101317.16;;;9.52;76.61
63204;BME280;49297;43.210;27.914;2022-12-07T01:33:57;101323.38;;;9.51;76.81
63204;BME280;49297;43.210;27.914;2022-12-07T01:36:29;101311.25;;;9.49;76.63
63204;BME280;49297;43.210;27.914;2022-12-07T01:38:57;101314.72;;;9.49;76.35
63204;BME280;49297;43.210;27.914;2022-12-07T01:41:26;101306.06;;;9.47;76.38
63204;BME280;49297;43.210;27.914;2022-12-07T01:44:21;101302.72;;;9.45;77.12
63204;BME280;49297;43.210;27.914;2022-12-07T01:46:57;101299.34;;;9.43;76.80
63204;BME280;49297;43.210;27.914;2022-12-07T01:49:35;101300.50;;;9.39;77.31
63204;BME280;49297;43.210;27.914;2022-12-07T01:52:21;101297.88;;;9.39;77.06
63204;BME280;49297;43.210;27.914;2022-12-07T01:54:51;101297.88;;;9.39;77.07
63204;BME280;49297;43.210;27.914;2022-12-07T01:57:18;101284.66;;;9.39;76.86
63204;BME280;49297;43.210;27.914;2022-12-07T01:59:47;101288.88;;;9.42;76.50
63204;BME280;49297;43.210;27.914;2022-12-07T02:02:20;101292.47;;;9.41;76.34
63204;BME280;49297;43.210;27.914;2022-12-07T02:04:47;101290.69;;;9.41;76.92
63204;BME280;49297;43.210;27.914;2022-12-07T02:07:13;101293.19;;;9.43;76.51
63204;BME280;49297;43.210;27.914;2022-12-07T02:09:39;101295.63;;;9.46;76.54
63204;BME280;49297;43.210;27.914;2022-12-07T02:12:05;101292.03;;;9.47;76.70
63204;BME280;49297;43.210;27.914;2022-12-07T02:14:30;101292.03;;;9.47;77.01
63204;BME280;49297;43.210;27.914;2022-12-07T02:17:01;101292.84;;;9.47;76.90
63204;BME280;49297;43.210;27.914;2022-12-07T02:19:39;101287.69;;;9.46;76.55
63204;BME280;49297;43.210;27.914;2022-12-07T02:22:54;101288.78;;;9.43;76.48
63204;BME280;49297;43.210;27.914;2022-12-07T02:25:58;101291.84;;;9.37;77.22
63204;BME280;49297;43.210;27.914;2022-12-07T02:28:59;101291.25;;;9.33;76.63
63204;BME280;49297;43.210;27.914;2022-12-07T02:31:31;101286.31;;;9.29;77.11
63204;BME280;49297;43.210;27.914;2022-12-07T02:34:11;101296.28;;;9.25;76.88
63204;BME280;49297;43.210;27.914;2022-12-07T02:36:43;101288.59;;;9.22;76.86
63204;BME280;49297;43.210;27.914;2022-12-07T02:39:19;101294.09;;;9.19;76.92
63204;BME280;49297;43.210;27.914;2022-12-07T02:41:52;101289.88;;;9.17;76.76
63204;BME280;49297;43.210;27.914;2022-12-07T02:44:23;101290.00;;;9.15;76.47
63204;BME280;49297;43.210;27.914;2022-12-07T02:46:57;101286.63;;;9.13;77.21
63204;BME280;49297;43.210;27.914;2022-12-07T02:49:26;101300.06;;;9.10;76.86
63204;BME280;49297;43.210;27.914;2022-12-07T02:51:53;101287.94;;;9.07;77.35
63204;BME280;49297;43.210;27.914;2022-12-07T02:54:20;101290.78;;;9.04;76.47
63204;BME280;49297;43.210;27.914;2022-12-07T03:05:00;101289.78;;;8.94;77.16
63204;BME280;49297;43.210;27.914;2022-12-07T03:07:42;101284.00;;;8.89;76.83
63204;BME280;49297;43.210;27.914;2022-12-07T03:18:38;101276.66;;;8.81;77.48
63204;BME280;49297;43.210;27.914;2022-12-07T03:21:13;101285.41;;;8.82;77.66
63204;BME280;49297;43.210;27.914;2022-12-07T03:23:41;101271.47;;;8.80;77.17
63204;BME280;49297;43.210;27.914;2022-12-07T03:26:12;101282.88;;;8.80;77.24
63204;BME280;49297;43.210;27.914;2022-12-07T03:28:42;101276.75;;;8.80;77.30
63204;BME280;49297;43.210;27.914;2022-12-07T03:31:31;101280.84;;;8.84;76.78
63204;BME280;49297;43.210;27.914;2022-12-07T03:34:14;101272.72;;;8.87;77.52
63204;BME280;49297;43.210;27.914;2022-12-07T03:36:57;101277.88;;;8.88;77.16
63204;BME280;49297;43.210;27.914;2022-12-07T03:39:49;101273.22;;;8.92;77.59
63204;BME280;49297;43.210;27.914;2022-12-07T03:42:21;101268.75;;;8.92;77.60
63204;BME280;49297;43.210;27.914;2022-12-07T03:44:47;101264.31;;;8.93;77.50
63204;BME280;49297;43.210;27.914;2022-12-07T03:50:31;101269.50;;;8.94;77.13
63204;BME280;49297;43.210;27.914;2022-12-07T03:53:18;101266.84;;;8.94;76.96
63204;BME280;49297;43.210;27.914;2022-12-07T03:55:46;101271.41;;;8.92;77.15
63204;BME280;49297;43.210;27.914;2022-12-07T03:58:19;101272.38;;;8.91;77.35
63204;BME280;49297;43.210;27.914;2022-12-07T04:00:46;101272.38;;;8.91;76.67
63204;BME280;49297;43.210;27.914;2022-12-07T04:03:12;101271.63;;;8.89;77.02
63204;BME280;49297;43.210;27.914;2022-12-07T04:05:39;101271.75;;;8.88;77.02
63204;BME280;49297;43.210;27.914;2022-12-07T04:08:05;101275.25;;;8.88;76.62
63204;BME280;49297;43.210;27.914;2022-12-07T04:10:30;101269.22;;;8.86;77.03
63204;BME280;49297;43.210;27.914;2022-12-07T04:12:56;101266.69;;;8.85;76.45
63204;BME280;49297;43.210;27.914;2022-12-07T04:15:22;101260.44;;;8.86;76.71
63204;BME280;49297;43.210;27.914;2022-12-07T04:17:48;101265.00;;;8.84;77.17
63204;BME280;49297;43.210;27.914;2022-12-07T04:20:14;101261.53;;;8.83;77.12
63204;BME280;49297;43.210;27.914;2022-12-07T04:22:40;101254.44;;;8.84;76.96
63204;BME280;49297;43.210;27.914;2022-12-07T04:25:06;101261.63;;;8.82;76.81
63204;BME280;49297;43.210;27.914;2022-12-07T04:27:32;101250.34;;;8.80;76.88
63204;BME280;49297;43.210;27.914;2022-12-07T04:29:58;101249.63;;;8.77;76.85
63204;BME280;49297;43.210;27.914;2022-12-07T04:32:24;101250.66;;;8.75;76.88
63204;BME280;49297;43.210;27.914;2022-12-07T04:34:50;101245.63;;;8.72;76.39
63204;BME280;49297;43.210;27.914;2022-12-07T04:37:15;101252.84;;;8.70;76.51
63204;BME280;49297;43.210;27.914;2022-12-07T04:39:43;101258.34;;;8.67;76.81
63204;BME280;49297;43.210;27.914;2022-12-07T04:42:10;101245.47;;;8.62;76.75
63204;BME280;49297;43.210;27.914;2022-12-07T04:44:38;101265.94;;;8.58;76.36
63204;BME280;49297;43.210;27.914;2022-12-07T04:47:04;101253.22;;;8.52;76.75
63204;BME280;49297;43.210;27.914;2022-12-07T04:49:30;101256.16;;;8.48;77.08
63204;BME280;49297;43.210;27.914;2022-12-07T04:51:56;101261.66;;;8.45;76.53
63204;BME280;49297;43.210;27.914;2022-12-07T04:54:22;101259.25;;;8.42;76.43
63204;BME280;49297;43.210;27.914;2022-12-07T04:56:48;101264.72;;;8.38;76.09
63204;BME280;49297;43.210;27.914;2022-12-07T04:59:16;101260.63;;;8.34;76.27
63204;BME280;49297;43.210;27.914;2022-12-07T05:01:42;101262.66;;;8.31;76.06
63204;BME280;49297;43.210;27.914;2022-12-07T05:04:08;101259.38;;;8.27;77.37
63204;BME280;49297;43.210;27.914;2022-12-07T05:06:33;101258.75;;;8.24;76.50
63204;BME280;49297;43.210;27.914;2022-12-07T05:09:00;101256.34;;;8.20;76.80
63204;BME280;49297;43.210;27.914;2022-12-07T05:11:26;101260.00;;;8.18;76.87
63204;BME280;49297;43.210;27.914;2022-12-07T05:14:20;101271.63;;;8.15;77.15
63204;BME280;49297;43.210;27.914;2022-12-07T05:16:48;101259.38;;;8.14;77.14
63204;BME280;49297;43.210;27.914;2022-12-07T05:19:15;101260.47;;;8.12;76.60
63204;BME280;49297;43.210;27.914;2022-12-07T05:21:41;101267.63;;;8.10;77.34
63204;BME280;49297;43.210;27.914;2022-12-07T05:24:08;101272.19;;;8.08;77.18
63204;BME280;49297;43.210;27.914;2022-12-07T05:26:35;101275.97;;;8.04;76.92
63204;BME280;49297;43.210;27.914;2022-12-07T05:29:01;101270.78;;;8.02;77.14
63204;BME280;49297;43.210;27.914;2022-12-07T05:31:28;101275.34;;;8.00;77.30
63204;BME280;49297;43.210;27.914;2022-12-07T05:33:54;101271.03;;;7.99;77.00
63204;BME280;49297;43.210;27.914;2022-12-07T05:36:20;101271.97;;;7.98;77.48
63204;BME280;49297;43.210;27.914;2022-12-07T05:38:46;101270.31;;;7.97;77.27
63204;BME280;49297;43.210;27.914;2022-12-07T05:41:15;101271.25;;;7.96;77.00
63204;BME280;49297;43.210;27.914;2022-12-07T05:44:00;101270.41;;;7.95;77.29
63204;BME280;49297;43.210;27.914;2022-12-07T05:46:26;101272.94;;;7.97;77.32
63204;BME280;49297;43.210;27.914;2022-12-07T05:48:52;101272.06;;;7.96;77.61
63204;BME280;49297;43.210;27.914;2022-12-07T05:51:18;101270.16;;;7.98;76.79
63204;BME280;49297;43.210;27.914;2022-12-07T05:53:45;101270.16;;;7.98;77.71
63204;BME280;49297;43.210;27.914;2022-12-07T05:56:11;101259.63;;;7.98;77.22
63204;BME280;49297;43.210;27.914;2022-12-07T05:58:36;101264.78;;;8.00;77.45
63204;BME280;49297;43.210;27.914;2022-12-07T06:01:21;101265.66;;;8.00;77.41
63204;BME280;49297;43.210;27.914;2022-12-07T06:03:46;101267.44;;;8.00;77.48
63204;BME280;49297;43.210;27.914;2022-12-07T06:06:12;101267.44;;;8.00;77.23
63204;BME280;49297;43.210;27.914;2022-12-07T06:08:38;101258.56;;;8.01;77.64
63204;BME280;49297;43.210;27.914;2022-12-07T06:11:04;101262.06;;;8.01;76.71
63204;BME280;49297;43.210;27.914;2022-12-07T06:13:48;101274.31;;;8.03;76.99
63204;BME280;49297;43.210;27.914;2022-12-07T06:16:14;101268.94;;;8.04;77.60
63204;BME280;49297;43.210;27.914;2022-12-07T06:18:40;101272.28;;;8.06;77.68
63204;BME280;49297;43.210;27.914;2022-12-07T06:21:05;101275.56;;;8.10;77.01
63204;BME280;49297;43.210;27.914;2022-12-07T06:23:31;101264.81;;;8.13;77.53
63204;BME280;49297;43.210;27.914;2022-12-07T06:25:57;101277.13;;;8.12;76.91
63204;BME280;49297;43.210;27.914;2022-12-07T06:28:23;101276.09;;;8.15;77.65
63204;BME280;49297;43.210;27.914;2022-12-07T06:30:57;101275.00;;;8.17;77.86
63204;BME280;49297;43.210;27.914;2022-12-07T06:33:23;101276.38;;;8.23;77.56
63204;BME280;49297;43.210;27.914;2022-12-07T06:47:48;101276.66;;;8.31;77.76
63204;BME280;49297;43.210;27.914;2022-12-07T06:50:14;101276.34;;;8.36;77.24
63204;BME280;49297;43.210;27.914;2022-12-07T06:52:40;101280.34;;;8.42;76.98
63204;BME280;49297;43.210;27.914;2022-12-07T06:55:06;101278.13;;;8.48;77.67
63204;BME280;49297;43.210;27.914;2022-12-07T06:57:31;101275.06;;;8.54;77.24
63204;BME280;49297;43.210;27.914;2022-12-07T06:59:57;101283.50;;;8.60;77.48
63204;BME280;49297;43.210;27.914;2022-12-07T07:02:23;101269.94;;;8.64;77.53
63204;BME280;49297;43.210;27.914;2022-12-07T07:04:49;101274.06;;;8.68;77.09
63204;BME280;49297;43.210;27.914;2022-12-07T07:07:15;101277.31;;;8.72;77.64
63204;BME280;49297;43.210;27.914;2022-12-07T07:09:40;101282.25;;;8.76;76.87
63204;BME280;49297;43.210;27.914;2022-12-07T07:12:07;101282.88;;;8.80;77.39
63204;BME280;49297;43.210;27.914;2022-12-07T07:14:33;101280.72;;;8.85;77.44
63204;BME280;49297;43.210;27.914;2022-12-07T07:16:59;101276.78;;;8.91;77.49
63204;BME280;49297;43.210;27.914;2022-12-07T07:19:24;101284.19;;;8.99;76.95
63204;BME280;49297;43.210;27.914;2022-12-07T07:21:51;101278.31;;;9.06;77.13
63204;BME280;49297;43.210;27.914;2022-12-07T07:24:17;101285.66;;;9.14;77.27
63204;BME280;49297;43.210;27.914;2022-12-07T07:26:43;101284.25;;;9.21;77.17
63204;BME280;49297;43.210;27.914;2022-12-07T07:29:09;101288.22;;;9.27;76.43
63204;BME280;49297;43.210;27.914;2022-12-07T07:31:35;101288.50;;;9.35;76.80
63204;BME280;49297;43.210;27.914;2022-12-07T07:34:01;101278.91;;;9.45;76.63
63204;BME280;49297;43.210;27.914;2022-12-07T07:36:26;101282.91;;;9.51;76.37
63204;BME280;49297;43.210;27.914;2022-12-07T07:38:52;101285.06;;;9.57;75.83
63204;BME280;49297;43.210;27.914;2022-12-07T07:41:18;101289.06;;;9.63;76.27
63204;BME280;49297;43.210;27.914;2022-12-07T07:43:44;101287.63;;;9.70;75.47
63204;BME280;49297;43.210;27.914;2022-12-07T07:46:10;101285.31;;;9.77;75.98
63204;BME280;49297;43.210;27.914;2022-12-07T07:48:36;101281.41;;;9.82;75.23
63204;BME280;49297;43.210;27.914;2022-12-07T07:51:05;101286.19;;;9.88;75.26
63204;BME280;49297;43.210;27.914;2022-12-07T07:53:32;101284.88;;;9.94;75.52
63204;BME280;49297;43.210;27.914;2022-12-07T07:55:58;101290.66;;;9.99;75.30
63204;BME280;49297;43.210;27.914;2022-12-07T07:58:24;101291.25;;;10.03;74.96
63204;BME280;49297;43.210;27.914;2022-12-07T08:00:49;101289.31;;;10.05;nan
63204;BME280;49297;43.210;27.914;2022-12-07T08:03:15;101291.72;;;10.08;74.31
63204;BME280;49297;43.210;27.914;2022-12-07T08:05:41;101297.50;;;10.13;74.30
63204;BME280;49297;43.210;27.914;2022-12-07T08:08:07;101293.75;;;10.16;73.84
63204;BME280;49297;43.210;27.914;2022-12-07T08:10:33;101293.53;;;10.19;73.79
63204;BME280;49297;43.210;27.914;2022-12-07T08:13:00;101294.13;;;10.22;73.74
63204;BME280;49297;43.210;27.914;2022-12-07T08:15:44;101284.25;;;10.24;73.24
63204;BME280;49297;43.210;27.914;2022-12-07T08:18:11;101287.50;;;10.28;73.27
63204;BME280;49297;43.210;27.914;2022-12-07T08:20:38;101289.00;;;10.32;73.19
63204;BME280;49297;43.210;27.914;2022-12-07T08:23:06;101287.91;;;10.35;72.67
63204;BME280;49297;43.210;27.914;2022-12-07T08:25:32;101287.53;;;10.39;72.82
63204;BME280;49297;43.210;27.914;2022-12-07T08:28:00;101284.50;;;10.44;72.65
63204;BME280;49297;43.210;27.914;2022-12-07T08:30:27;101284.16;;;10.48;72.78
63204;BME280;49297;43.210;27.914;2022-12-07T08:32:54;101279.22;;;10.55;72.47
63204;BME280;49297;43.210;27.914;2022-12-07T08:35:21;101277.59;;;10.64;71.95
63204;BME280;49297;43.210;27.914;2022-12-07T08:37:47;101278.66;;;10.73;72.00
63204;BME280;49297;43.210;27.914;2022-12-07T08:40:14;101281.44;;;10.82;71.59
63204;BME280;49297;43.210;27.914;2022-12-07T08:42:44;101279.72;;;10.93;71.14
63204;BME280;49297;43.210;27.914;2022-12-07T08:45:12;101274.34;;;11.04;71.14
63204;BME280;49297;43.210;27.914;2022-12-07T08:48:04;101278.41;;;11.19;70.57
63204;BME280;49297;43.210;27.914;2022-12-07T08:50:33;101273.03;;;11.31;70.14
63204;BME280;49297;43.210;27.914;2022-12-07T08:53:00;101272.50;;;11.37;69.89
63204;BME280;49297;43.210;27.914;2022-12-07T08:55:27;101258.19;;;11.49;69.76
63204;BME280;49297;43.210;27.914;2022-12-07T08:57:54;101265.94;;;11.62;69.26
63204;BME280;49297;43.210;27.914;2022-12-07T09:00:21;101254.56;;;11.71;69.01
63204;BME280;49297;43.210;27.914;2022-12-07T09:02:47;101256.56;;;11.79;68.61
63204;BME280;49297;43.210;27.914;2022-12-07T09:05:14;101261.88;;;11.79;68.21
63204;BME280;49297;43.210;27.914;2022-12-07T09:07:43;101254.75;;;11.79;68.21
63204;BME280;49297;43.210;27.914;2022-12-07T09:10:11;101252.94;;;11.80;68.08
63204;BME280;49297;43.210;27.914;2022-12-07T09:12:38;101247.06;;;11.76;67.38
63204;BME280;49297;43.210;27.914;2022-12-07T09:15:04;101249.72;;;11.76;67.46
63204;BME280;49297;43.210;27.914;2022-12-07T09:17:32;101239.25;;;11.75;67.15
63204;BME280;49297;43.210;27.914;2022-12-07T09:19:59;101243.81;;;11.73;66.99
63204;BME280;49297;43.210;27.914;2022-12-07T09:22:30;101236.97;;;11.70;66.82
63204;BME280;49297;43.210;27.914;2022-12-07T09:24:59;101227.47;;;11.68;67.04
63204;BME280;49297;43.210;27.914;2022-12-07T09:27:26;101237.22;;;11.67;67.14
63204;BME280;49297;43.210;27.914;2022-12-07T09:29:52;101229.13;;;11.69;66.89
63204;BME280;49297;43.210;27.914;2022-12-07T09:32:18;101227.06;;;11.72;67.14
63204;BME280;49297;43.210;27.914;2022-12-07T09:34:43;101227.63;;;11.76;66.95
63204;BME280;49297;43.210;27.914;2022-12-07T09:37:09;101210.63;;;11.78;66.65
63204;BME280;49297;43.210;27.914;2022-12-07T09:39:38;101213.00;;;11.81;66.38
63204;BME280;49297;43.210;27.914;2022-12-07T09:42:05;101205.19;;;11.80;65.72
63204;BME280;49297;43.210;27.914;2022-12-07T09:44:33;101214.81;;;11.81;66.00
63204;BME280;49297;43.210;27.914;2022-12-07T09:46:59;101212.88;;;11.83;65.97
63204;BME280;49297;43.210;27.914;2022-12-07T09:49:28;101209.13;;;11.86;65.48
63204;BME280;49297;43.210;27.914;2022-12-07T09:52:15;101205.03;;;11.81;65.45
63204;BME280;49297;43.210;27.914;2022-12-07T09:54:46;101202.38;;;11.81;65.77
63204;BME280;49297;43.210;27.914;2022-12-07T09:57:13;101205.47;;;11.87;65.86
63204;BME280;49297;43.210;27.914;2022-12-07T09:59:39;101201.72;;;11.89;65.87
63204;BME280;49297;43.210;27.914;2022-12-07T10:02:28;101196.69;;;11.86;65.46
63204;BME280;49297;43.210;27.914;2022-12-07T10:04:57;101196.94;;;11.83;65.05
63204;BME280;49297;43.210;27.914;2022-12-07T10:07:24;101197.25;;;11.80;65.19
63204;BME280;49297;43.210;27.914;2022-12-07T10:09:50;101192.75;;;11.80;65.41
63204;BME280;49297;43.210;27.914;2022-12-07T10:12:16;101184.81;;;11.80;65.08
63204;BME280;49297;43.210;27.914;2022-12-07T10:15:11;101189.69;;;11.85;65.13
63204;BME280;49297;43.210;27.914;2022-12-07T10:17:41;101182.06;;;11.92;65.11
63204;BME280;49297;43.210;27.914;2022-12-07T10:20:24;101181.38;;;11.99;65.12
63204;BME280;49297;43.210;27.914;2022-12-07T10:22:58;101181.44;;;12.09;65.07
63204;BME280;49297;43.210;27.914;2022-12-07T10:25:28;101184.38;;;12.16;65.19
63204;BME280;49297;43.210;27.914;2022-12-07T10:28:14;101179.63;;;12.19;64.87
63204;BME280;49297;43.210;27.914;2022-12-07T10:33:36;101174.59;;;12.26;64.73
63204;BME280;49297;43.210;27.914;2022-12-07T10:36:38;101174.75;;;12.34;64.99
63204;BME280;49297;43.210;27.914;2022-12-07T10:39:16;101167.78;;;12.43;65.50
63204;BME280;49297;43.210;27.914;2022-12-07T10:42:01;101165.41;;;12.50;65.57
63204;BME280;49297;43.210;27.914;2022-12-07T10:44:30;101167.78;;;12.53;65.27
63204;BME280;49297;43.210;27.914;2022-12-07T10:47:01;101163.47;;;12.52;65.33
63204;BME280;49297;43.210;27.914;2022-12-07T10:50:08;101160.38;;;12.47;65.43
63204;BME280;49297;43.210;27.914;2022-12-07T10:53:07;101150.31;;;12.41;65.46
63204;BME280;49297;43.210;27.914;2022-12-07T10:59:03;101150.59;;;12.37;65.31
63204;BME280;49297;43.210;27.914;2022-12-07T11:02:25;101145.97;;;12.40;65.08
63204;BME280;49297;43.210;27.914;2022-12-07T11:04:47;101145.03;;;12.41;64.78
63204;BME280;49297;43.210;27.914;2022-12-07T11:11:04;101142.63;;;12.47;64.18
63204;BME280;49297;43.210;27.914;2022-12-07T11:16:50;101133.97;;;12.55;63.98
63204;BME280;49297;43.210;27.914;2022-12-07T11:21:41;101124.75;;;12.59;63.44
63204;BME280;49297;43.210;27.914;2022-12-07T11:24:33;101122.91;;;12.60;62.98
63204;BME280;49297;43.210;27.914;2022-12-07T11:27:15;101123.47;;;12.63;63.24
63204;BME280;49297;43.210;27.914;2022-12-07T11:30:00;101115.22;;;12.66;63.18
63204;BME280;49297;43.210;27.914;2022-12-07T11:37:43;101106.81;;;12.81;64.08
63204;BME280;49297;43.210;27.914;2022-12-07T11:40:26;101102.06;;;12.84;64.43
63204;BME280;49297;43.210;27.914;2022-12-07T11:43:10;101093.66;;;12.89;64.78
63204;BME280;49297;43.210;27.914;2022-12-07T11:45:42;101096.00;;;12.92;64.72
63204;BME280;49297;43.210;27.914;2022-12-07T11:48:17;101094.91;;;12.94;64.85
63204;BME280;49297;43.210;27.914;2022-12-07T11:50:52;101098.25;;;12.97;64.96
63204;BME280;49297;43.210;27.914;2022-12-07T11:53:37;101092.25;;;12.94;64.95
63204;BME280;49297;43.210;27.914;2022-12-07T12:03:45;101089.03;;;12.81;65.70
63204;BME280;49297;43.210;27.914;2022-12-07T12:06:12;101086.38;;;12.81;65.88
63204;BME280;49297;43.210;27.914;2022-12-07T12:17:10;101088.38;;;12.69;65.33
63204;BME280;49297;43.210;27.914;2022-12-07T12:20:19;101077.44;;;12.72;65.39
63204;BME280;49297;43.210;27.914;2022-12-07T12:25:47;101074.66;;;12.74;65.10
63204;BME280;49297;43.210;27.914;2022-12-07T12:33:55;101067.53;;;12.74;65.09
63204;BME280;49297;43.210;27.914;2022-12-07T12:46:51;101066.13;;;12.70;65.17
63204;BME280;49297;43.210;27.914;2022-12-07T12:54:32;101067.41;;;12.66;65.34
63204;BME280;49297;43.210;27.914;2022-12-07T12:59:30;101057.63;;;12.67;64.70
63204;BME280;49297;43.210;27.914;2022-12-07T13:04:55;101061.28;;;12.66;64.50
63204;BME280;49297;43.210;27.914;2022-12-07T13:10:34;101061.00;;;12.59;64.33
63204;BME280;49297;43.210;27.914;2022-12-07T13:15:56;101060.84;;;12.51;63.78
63204;BME280;49297;43.210;27.914;2022-12-07T13:18:41;101056.81;;;12.47;64.12
63204;BME280;49297;43.210;27.914;2022-12-07T13:23:39;101059.75;;;12.44;64.44
63204;BME280;49297;43.210;27.914;2022-12-07T13:28:50;101051.09;;;12.42;64.11
63204;BME280;49297;43.210;27.914;2022-12-07T13:31:38;101046.78;;;12.41;64.66
63204;BME280;49297;43.210;27.914;2022-12-07T13:34:27;101046.91;;;12.39;64.44
63204;BME280;49297;43.210;27.914;2022-12-07T13:36:51;101049.69;;;12.37;64.86
63204;BME280;49297;43.210;27.914;2022-12-07T13:39:22;101049.84;;;12.36;64.62
63204;BME280;49297;43.210;27.914;2022-12-07T13:41:58;101051.81;;;12.34;64.55
63204;BME280;49297;43.210;27.914;2022-12-07T13:44:27;101049.41;;;12.31;64.70
63204;BME280;49297;43.210;27.914;2022-12-07T13:49:50;101046.78;;;12.21;65.61
63204;BME280;49297;43.210;27.914;2022-12-07T13:52:20;101052.63;;;12.15;66.26
63204;BME280;49297;43.210;27.914;2022-12-07T13:54:58;101054.88;;;12.10;67.40
63204;BME280;49297;43.210;27.914;2022-12-07T13:57:26;101050.97;;;12.04;67.80
63204;BME280;49297;43.210;27.914;2022-12-07T13:59:53;101068.16;;;12.00;67.96
63204;BME280;49297;43.210;27.914;2022-12-07T14:02:27;101068.53;;;11.95;68.22
63204;BME280;49297;43.210;27.914;2022-12-07T14:05:33;101063.78;;;11.89;68.75
63204;BME280;49297;43.210;27.914;2022-12-07T14:08:05;101067.66;;;11.85;68.78
63204;BME280;49297;43.210;27.914;2022-12-07T14:13:30;101063.31;;;11.74;68.50
63204;BME280;49297;43.210;27.914;2022-12-07T14:15:58;101062.75;;;11.71;68.67
63204;BME280;49297;43.210;27.914;2022-12-07T14:18:40;101056.03;;;11.67;68.63
63204;BME280;49297;43.210;27.914;2022-12-07T14:23:38;101069.13;;;11.58;68.87
63204;BME280;49297;43.210;27.914;2022-12-07T14:26:11;101066.78;;;11.55;68.31
63204;BME280;49297;43.210;27.914;2022-12-07T14:28:39;101068.84;;;11.52;68.38
63204;BME280;49297;43.210;27.914;2022-12-07T14:31:14;101065.63;;;11.48;68.05
63204;BME280;49297;43.210;27.914;2022-12-07T14:33:41;101057.81;;;11.47;68.11
63204;BME280;49297;43.210;27.914;2022-12-07T14:36:14;101057.13;;;11.45;67.89
63204;BME280;49297;43.210;27.914;2022-12-07T14:38:40;101057.38;;;11.41;67.67
63204;BME280;49297;43.210;27.914;2022-12-07T14:41:13;101060.16;;;11.40;67.64
63204;BME280;49297;43.210;27.914;2022-12-07T14:43:59;101060.28;;;11.38;67.57
63204;BME280;49297;43.210;27.914;2022-12-07T14:46:25;101055.25;;;11.35;67.57
63204;BME280;49297;43.210;27.914;2022-12-07T14:48:51;101055.41;;;11.34;67.63
63204;BME280;49297;43.210;27.914;2022-12-07T14:51:16;101052.03;;;11.32;67.46
63204;BME280;49297;43.210;27.914;2022-12-07T14:53:48;101059.28;;;11.30;67.33
63204;BME280;49297;43.210;27.914;2022-12-07T14:56:14;101059.56;;;11.27;67.43
63204;BME280;49297;43.210;27.914;2022-12-07T14:58:40;101069.31;;;11.26;67.89
63204;BME280;49297;43.210;27.914;2022-12-07T15:01:06;101061.78;;;11.21;67.53
63204;BME280;49297;43.210;27.914;2022-12-07T15:03:32;101062.72;;;11.20;68.04